Time;durP1;ratioP1;P1;durP2;ratioP2;P2;SDS_P1;SDS_P2;PMS_P1;PMS_P2;Temp;Humidity;BMP_temperature;BMP_pressure;BME280_temperature;BME280_humidity;BME280_pressure;Samples;Min_cycle;Max_cycle;Signal;HPM_P1;HPM_P2
2021/11/17 02:26:13;;;;;;;22.13;10.60;;;5.50;99.90;;;;;;5115578;28;20208;-72
2021/11/17 02:31:34;;;;;;;23.40;11.37;;;5.50;99.90;;;;;;5049025;22;20220;-69
2021/11/17 02:34:22;;;;;;;25.50;13.00;;;5.50;99.90;;;;;;5074911;28;20576;-69
2021/11/17 02:37:14;;;;;;;22.40;10.93;;;5.50;99.90;;;;;;5063593;28;20202;-68
2021/11/17 02:40:09;;;;;;;26.53;11.33;;;5.60;99.90;;;;;;5067890;28;20305;-69
2021/11/17 02:42:50;;;;;;;23.57;10.90;;;5.50;99.90;;;;;;5074354;28;20241;-69
2021/11/17 02:45:32;;;;;;;26.70;12.47;;;5.60;99.90;;;;;;5074844;28;20696;-68
2021/11/17 02:48:15;;;;;;;23.40;11.43;;;5.60;99.90;;;;;;5074168;28;20234;-69
2021/11/17 02:51:10;;;;;;;20.60;9.97;;;5.60;99.90;;;;;;5074559;28;20293;-68
2021/11/17 02:53:50;;;;;;;18.70;8.60;;;5.60;99.90;;;;;;5074078;28;21054;-68
2021/11/17 02:56:43;;;;;;;19.03;8.63;;;5.70;99.90;;;;;;5074363;28;20285;-68
2021/11/17 02:59:31;;;;;;;18.70;8.60;;;5.70;99.90;;;;;;5074572;28;20232;-68
2021/11/17 03:02:19;;;;;;;19.40;8.47;;;5.70;99.90;;;;;;5066300;28;20643;-68
2021/11/17 03:05:14;;;;;;;17.63;8.23;;;5.70;99.90;;;;;;5070998;28;20277;-69
2021/11/17 03:07:58;;;;;;;18.60;8.47;;;5.70;99.90;;;;;;5072806;28;20285;-68
2021/11/17 03:10:51;;;;;;;17.03;7.77;;;5.70;99.90;;;;;;5073811;28;20700;-68
2021/11/17 03:13:35;;;;;;;16.50;8.40;;;5.80;99.90;;;;;;5074370;28;20293;-68
2021/11/17 03:16:33;;;;;;;19.13;8.50;;;5.80;99.90;;;;;;5074741;28;20670;-68
2021/11/17 03:19:13;;;;;;;18.13;7.97;;;5.70;99.90;;;;;;5043150;28;20577;-68
2021/11/17 03:21:56;;;;;;;15.97;8.27;;;5.80;99.90;;;;;;5073668;28;20213;-69
2021/11/17 03:24:37;;;;;;;16.37;7.80;;;5.80;99.90;;;;;;5074387;28;20289;-69
2021/11/17 03:27:19;;;;;;;17.23;8.60;;;5.80;99.90;;;;;;5074233;28;20194;-68
2021/11/17 03:30:12;;;;;;;17.93;8.73;;;5.80;99.90;;;;;;5073704;28;20194;-68
2021/11/17 03:32:53;;;;;;;17.10;8.20;;;5.80;99.90;;;;;;5073459;28;20216;-68
2021/11/17 03:35:50;;;;;;;16.40;8.37;;;5.80;99.90;;;;;;5073586;28;20204;-68
2021/11/17 03:38:42;;;;;;;17.37;7.67;;;5.80;99.90;;;;;;5055534;28;20285;-68
2021/11/17 03:41:38;;;;;;;18.43;8.10;;;5.80;99.90;;;;;;5073654;28;20293;-68
2021/11/17 03:44:24;;;;;;;19.80;8.90;;;5.80;99.90;;;;;;5053624;28;20717;-68
2021/11/17 03:47:16;;;;;;;17.70;7.80;;;5.70;99.90;;;;;;5073938;28;20202;-69
2021/11/17 03:49:57;;;;;;;18.30;8.43;;;5.80;99.90;;;;;;5073256;28;20661;-69
2021/11/17 03:52:39;;;;;;;17.10;8.13;;;5.80;99.90;;;;;;5073088;28;20202;-68
2021/11/17 03:55:27;;;;;;;21.53;9.87;;;5.80;99.90;;;;;;5073521;28;20713;-69
2021/11/17 03:58:05;;;;;;;20.80;9.43;;;5.80;99.90;;;;;;5073934;28;20606;-69
2021/11/17 04:00:58;;;;;;;21.80;10.43;;;5.70;99.90;;;;;;5071862;28;20304;-68
2021/11/17 04:03:54;;;;;;;20.77;9.17;;;5.70;99.90;;;;;;5072760;28;20210;-68
2021/11/17 04:06:33;;;;;;;20.03;9.57;;;5.70;99.90;;;;;;5072790;28;20194;-68
2021/11/17 04:09:13;;;;;;;21.13;10.33;;;5.70;99.90;;;;;;5071658;28;20200;-68
2021/11/17 04:11:55;;;;;;;20.53;9.73;;;5.70;99.90;;;;;;5064879;28;20285;-68
2021/11/17 04:14:36;;;;;;;22.50;9.50;;;5.70;99.90;;;;;;5071988;28;20285;-68
2021/11/17 04:17:21;;;;;;;19.73;9.70;;;5.70;99.90;;;;;;5068435;28;20212;-69
2021/11/17 04:20:00;;;;;;;19.27;9.07;;;5.70;99.90;;;;;;5070339;28;20304;-69
2021/11/17 04:22:49;;;;;;;19.73;10.00;;;5.70;99.90;;;;;;5080893;28;20209;-69
2021/11/17 04:25:30;;;;;;;21.80;10.10;;;5.70;99.90;;;;;;5072494;28;20202;-69
2021/11/17 04:28:13;;;;;;;19.63;9.50;;;5.70;99.90;;;;;;5053035;28;20293;-69
2021/11/17 04:31:05;;;;;;;20.30;10.10;;;5.70;99.90;;;;;;5052999;28;20290;-69
2021/11/17 04:33:54;;;;;;;19.67;8.60;;;5.70;99.90;;;;;;5071874;28;20289;-68
2021/11/17 04:36:44;;;;;;;18.47;8.50;;;5.70;99.90;;;;;;5068294;28;20198;-68
2021/11/17 04:39:40;;;;;;;19.87;9.73;;;5.70;99.90;;;;;;5072627;28;20672;-69
2021/11/17 04:42:46;;;;;;;20.53;10.13;;;5.70;99.90;;;;;;5070757;28;20285;-68
2021/11/17 04:45:38;;;;;;;21.40;10.40;;;5.80;99.90;;;;;;5072305;28;20218;-68
2021/11/17 04:48:29;;;;;;;21.00;9.17;;;5.70;99.90;;;;;;5071582;28;20233;-69
2021/11/17 04:51:22;;;;;;;17.77;8.77;;;5.70;99.90;;;;;;5066866;28;20247;-68
2021/11/17 04:54:14;;;;;;;18.23;8.87;;;5.70;99.90;;;;;;5068407;28;20251;-68
2021/11/17 04:56:59;;;;;;;21.53;10.27;;;5.70;99.90;;;;;;5069945;28;20260;-68
2021/11/17 04:59:45;;;;;;;20.83;9.77;;;5.70;99.90;;;;;;5071432;28;20753;-68
2021/11/17 05:02:39;;;;;;;20.00;9.60;;;5.70;99.90;;;;;;5067730;28;20206;-68
2021/11/17 05:05:28;;;;;;;23.20;10.27;;;5.70;99.90;;;;;;5071230;28;20793;-68
2021/11/17 05:08:03;;;;;;;21.10;10.97;;;5.70;99.90;;;;;;5067799;28;20198;-68
2021/11/17 05:10:44;;;;;;;23.13;11.30;;;5.70;99.90;;;;;;5072981;28;20667;-68
2021/11/17 05:13:23;;;;;;;23.10;10.97;;;5.70;99.90;;;;;;5072169;28;20197;-68
2021/11/17 05:16:04;;;;;;;23.17;11.33;;;5.70;99.90;;;;;;5062108;28;20198;-68
2021/11/17 05:18:38;;;;;;;24.23;11.53;;;5.70;99.90;;;;;;5069518;28;20194;-68
2021/11/17 05:21:20;;;;;;;24.37;12.13;;;5.70;99.90;;;;;;5070182;28;20198;-68
2021/11/17 05:24:01;;;;;;;25.33;11.63;;;5.70;99.90;;;;;;5067769;28;20222;-68
2021/11/17 05:26:43;;;;;;;23.07;12.13;;;5.70;99.90;;;;;;5070602;28;20190;-69
2021/11/17 05:29:26;;;;;;;24.97;12.30;;;5.70;99.90;;;;;;5071706;28;20550;-68
2021/11/17 05:32:09;;;;;;;27.53;14.07;;;5.70;99.90;;;;;;5069023;28;20206;-68
2021/11/17 05:34:48;;;;;;;24.07;12.90;;;5.70;99.90;;;;;;5070319;28;20680;-68
2021/11/17 05:37:25;;;;;;;26.50;13.47;;;5.60;99.90;;;;;;5070283;28;20239;-69
2021/11/17 05:40:19;;;;;;;25.83;14.13;;;5.60;99.90;;;;;;5070834;28;20225;-69
2021/11/17 05:42:57;;;;;;;24.00;12.73;;;5.60;99.90;;;;;;5068821;28;20198;-69
2021/11/17 05:45:38;;;;;;;25.60;12.97;;;5.60;99.90;;;;;;5068779;28;20264;-68
2021/11/17 05:48:18;;;;;;;26.10;12.90;;;5.60;99.90;;;;;;5071131;28;20198;-69
2021/11/17 05:50:59;;;;;;;24.00;12.03;;;5.60;99.90;;;;;;5069037;28;20190;-69
2021/11/17 05:53:42;;;;;;;22.87;11.57;;;5.60;99.90;;;;;;5069006;28;20197;-69
2021/11/17 05:56:27;;;;;;;23.43;12.10;;;5.60;99.90;;;;;;5069142;28;20300;-69
2021/11/17 05:59:10;;;;;;;24.70;12.47;;;5.60;99.90;;;;;;5067857;28;20194;-69
2021/11/17 06:01:51;;;;;;;23.53;12.50;;;5.60;99.90;;;;;;5070855;28;20199;-69
2021/11/17 06:04:18;;;;;;;28.83;13.40;;;5.60;99.90;;;;;;5067427;28;20457;-69
2021/11/17 06:06:45;;;;;;;27.73;13.70;;;5.60;99.90;;;;;;5069937;28;20264;-68
2021/11/17 06:09:12;;;;;;;27.67;14.00;;;5.60;99.90;;;;;;5070751;28;20637;-69
2021/11/17 06:11:44;;;;;;;29.83;14.13;;;5.60;99.90;;;;;;5069560;28;20210;-68
2021/11/17 06:14:15;;;;;;;26.97;13.57;;;5.60;99.90;;;;;;5070184;28;20199;-69
2021/11/17 06:16:45;;;;;;;25.20;13.13;;;5.60;99.90;;;;;;5070335;28;20252;-68
2021/11/17 06:19:14;;;;;;;25.77;13.30;;;5.60;99.90;;;;;;5070514;28;20248;-69
2021/11/17 06:21:43;;;;;;;28.40;13.47;;;5.60;99.90;;;;;;5067665;28;20649;-68
2021/11/17 06:24:14;;;;;;;25.57;13.30;;;5.60;99.90;;;;;;5070719;28;20194;-69
2021/11/17 06:26:45;;;;;;;28.83;14.80;;;5.70;99.90;;;;;;5070146;28;20202;-68
2021/11/17 06:29:16;;;;;;;27.50;13.73;;;5.60;99.90;;;;;;5069591;28;20202;-69
2021/11/17 06:31:44;;;;;;;25.50;13.13;;;5.70;99.90;;;;;;5069876;28;20206;-69
2021/11/17 06:34:30;;;;;;;28.33;15.00;;;5.70;99.90;;;;;;5070129;28;20201;-69
2021/11/17 06:36:57;;;;;;;27.67;13.80;;;5.60;99.90;;;;;;5062626;28;20675;-68
2021/11/17 06:39:25;;;;;;;30.63;15.67;;;5.60;99.90;;;;;;5070175;28;20221;-68
2021/11/17 06:41:55;;;;;;;29.67;15.63;;;5.60;99.90;;;;;;5069988;28;20252;-69
2021/11/17 06:44:23;;;;;;;33.93;17.13;;;5.60;99.90;;;;;;5070419;28;20198;-68
2021/11/17 06:46:51;;;;;;;32.43;16.60;;;5.60;99.90;;;;;;5071085;28;20629;-69
2021/11/17 06:49:18;;;;;;;35.63;17.37;;;5.50;99.90;;;;;;5073613;28;20190;-69
2021/11/17 06:51:45;;;;;;;28.67;15.63;;;5.50;99.90;;;;;;5072521;28;20264;-69
2021/11/17 06:54:12;;;;;;;33.83;16.40;;;5.50;99.90;;;;;;5073779;28;20190;-68
2021/11/17 06:56:39;;;;;;;31.13;16.17;;;5.50;99.90;;;;;;5072973;28;20702;-69
2021/11/17 06:59:08;;;;;;;33.57;16.17;;;5.60;99.90;;;;;;5073921;28;20251;-69
2021/11/17 07:01:35;;;;;;;32.50;16.27;;;5.50;99.90;;;;;;5073085;28;20255;-68
2021/11/17 07:04:03;;;;;;;32.97;15.93;;;5.50;99.90;;;;;;5073444;28;20205;-68
2021/11/17 07:06:30;;;;;;;32.30;16.33;;;5.60;99.90;;;;;;5073171;28;20194;-68
2021/11/17 07:08:57;;;;;;;32.23;16.70;;;5.60;99.90;;;;;;5073119;28;20203;-69
2021/11/17 07:11:24;;;;;;;30.57;15.60;;;5.60;99.90;;;;;;5072215;28;20645;-69
2021/11/17 07:13:52;;;;;;;31.80;16.03;;;5.60;99.90;;;;;;5073252;28;20683;-68
2021/11/17 07:16:21;;;;;;;31.30;15.93;;;5.60;99.90;;;;;;5072869;28;20256;-69
2021/11/17 07:18:48;;;;;;;30.23;14.37;;;5.50;99.90;;;;;;5072799;28;20190;-69
2021/11/17 07:21:16;;;;;;;34.40;17.37;;;5.50;99.90;;;;;;5071713;28;20476;-69
2021/11/17 07:23:43;;;;;;;30.67;15.50;;;5.50;99.90;;;;;;5072852;28;20217;-68
2021/11/17 07:26:10;;;;;;;33.53;15.63;;;5.50;99.90;;;;;;5073598;28;20637;-68
2021/11/17 07:28:37;;;;;;;32.27;15.27;;;5.50;99.90;;;;;;5072129;28;20612;-68
2021/11/17 07:31:04;;;;;;;29.80;14.40;;;5.50;99.90;;;;;;5070763;28;20203;-68
2021/11/17 07:33:32;;;;;;;30.23;15.30;;;5.50;99.90;;;;;;5073112;28;20206;-68
2021/11/17 07:35:59;;;;;;;31.57;14.97;;;5.60;99.90;;;;;;5073259;28;20198;-68
2021/11/17 07:38:26;;;;;;;26.70;13.47;;;5.50;99.90;;;;;;5071613;28;20264;-68
2021/11/17 07:40:54;;;;;;;28.70;13.90;;;5.50;99.90;;;;;;5070493;28;20310;-68
2021/11/17 07:43:24;;;;;;;26.70;13.63;;;5.40;99.90;;;;;;5072180;28;20194;-68
2021/11/17 07:45:51;;;;;;;30.90;14.63;;;5.50;99.90;;;;;;5071891;28;20598;-68
2021/11/17 07:48:21;;;;;;;26.77;12.73;;;5.60;99.90;;;;;;5071915;28;20198;-68
2021/11/17 07:50:50;;;;;;;26.73;13.67;;;5.70;99.90;;;;;;5071480;28;20186;-68
2021/11/17 07:53:19;;;;;;;22.53;12.00;;;5.70;99.90;;;;;;5072776;28;20660;-68
2021/11/17 07:55:49;;;;;;;27.07;12.73;;;5.70;99.90;;;;;;5072354;28;20259;-68
2021/11/17 07:58:16;;;;;;;24.50;12.43;;;5.70;99.90;;;;;;5072152;28;20218;-68
2021/11/17 08:00:48;;;;;;;23.90;11.80;;;5.70;99.90;;;;;;5071766;28;20223;-69
2021/11/17 08:03:17;;;;;;;23.93;11.40;;;5.80;99.90;;;;;;5072747;28;20210;-68
2021/11/17 08:05:46;;;;;;;22.20;11.63;;;5.90;99.90;;;;;;5072771;28;20202;-68
2021/11/17 08:08:16;;;;;;;22.93;11.40;;;6.00;99.90;;;;;;5072532;28;20417;-68
2021/11/17 08:10:43;;;;;;;22.53;10.90;;;6.00;99.90;;;;;;5071649;28;20234;-68
2021/11/17 08:13:10;;;;;;;19.83;9.77;;;6.00;99.90;;;;;;5071857;28;20669;-72
2021/11/17 08:15:38;;;;;;;20.67;10.10;;;6.00;99.90;;;;;;5071678;28;20630;-73
2021/11/17 08:18:06;;;;;;;20.37;10.10;;;6.00;99.90;;;;;;5072325;28;20233;-73
2021/11/17 08:20:34;;;;;;;21.53;9.97;;;6.00;99.90;;;;;;5072017;28;20210;-73
2021/11/17 08:23:02;;;;;;;18.00;9.20;;;6.10;99.90;;;;;;5072108;28;20206;-73
2021/11/17 08:25:32;;;;;;;17.60;8.60;;;6.00;99.90;;;;;;5072568;28;20206;-73
2021/11/17 08:28:00;;;;;;;18.13;8.80;;;6.00;99.90;;;;;;5070957;28;20233;-73
2021/11/17 08:30:31;;;;;;;19.50;9.07;;;6.10;99.90;;;;;;5061349;28;20267;-74
2021/11/17 08:32:59;;;;;;;18.10;8.67;;;6.10;99.90;;;;;;5072242;28;20614;-73
2021/11/17 08:35:29;;;;;;;16.70;8.53;;;6.10;99.90;;;;;;5070415;28;20290;-73
2021/11/17 08:37:59;;;;;;;18.63;8.37;;;6.20;99.90;;;;;;5065867;28;20202;-73
2021/11/17 08:40:29;;;;;;;18.10;9.13;;;6.40;99.90;;;;;;5065766;28;20275;-73
2021/11/17 08:42:58;;;;;;;18.97;9.30;;;6.60;99.90;;;;;;5064840;28;20282;-73
2021/11/17 08:45:27;;;;;;;17.47;9.37;;;6.60;99.90;;;;;;5069057;28;20229;-73
2021/11/17 08:47:55;;;;;;;18.97;9.77;;;6.70;99.90;;;;;;5070759;28;20256;-73
2021/11/17 08:50:25;;;;;;;20.67;9.70;;;6.80;99.90;;;;;;5071440;28;20267;-73
2021/11/17 08:52:53;;;;;;;19.00;8.97;;;6.70;99.90;;;;;;5071446;28;20232;-73
2021/11/17 08:55:22;;;;;;;18.53;9.33;;;6.80;99.90;;;;;;5071762;28;20252;-73
2021/11/17 08:57:49;;;;;;;18.37;8.87;;;7.30;99.90;;;;;;5070351;28;20252;-73
2021/11/17 09:00:20;;;;;;;20.47;9.97;;;6.80;99.90;;;;;;5073958;28;20640;-73
2021/11/17 09:02:48;;;;;;;18.47;9.97;;;6.50;99.90;;;;;;5065148;28;20640;-73
2021/11/17 09:05:17;;;;;;;17.17;9.17;;;6.50;99.90;;;;;;5070087;28;20198;-73
2021/11/17 09:07:45;;;;;;;18.70;9.83;;;6.60;99.90;;;;;;5071071;28;20721;-73
2021/11/17 09:10:15;;;;;;;18.70;9.53;;;6.90;99.90;;;;;;5071088;28;20259;-73
2021/11/17 09:12:43;;;;;;;20.57;9.83;;;6.70;99.90;;;;;;5075206;28;20712;-73
2021/11/17 09:15:12;;;;;;;18.60;9.17;;;7.10;99.90;;;;;;5089898;28;20254;-73
2021/11/17 09:17:42;;;;;;;17.90;9.30;;;7.30;99.90;;;;;;5073450;28;20203;-73
2021/11/17 09:20:12;;;;;;;18.50;9.97;;;6.90;99.90;;;;;;5071674;28;20256;-73
2021/11/17 09:22:41;;;;;;;16.53;9.30;;;6.80;99.90;;;;;;5071164;28;20599;-73
2021/11/17 09:25:10;;;;;;;17.07;9.07;;;7.10;99.90;;;;;;5071423;28;20210;-73
2021/11/17 09:27:38;;;;;;;18.77;8.97;;;7.20;99.90;;;;;;5071035;28;20726;-73
2021/11/17 09:30:07;;;;;;;15.67;8.30;;;7.20;99.90;;;;;;5071617;28;20198;-73
2021/11/17 09:32:34;;;;;;;15.33;8.27;;;7.10;99.90;;;;;;5069768;28;20214;-73
2021/11/17 09:35:06;;;;;;;16.23;9.20;;;7.10;99.90;;;;;;5071526;28;20648;-73
2021/11/17 09:37:33;;;;;;;15.30;7.97;;;7.10;99.90;;;;;;5071180;28;20198;-73
2021/11/17 09:40:00;;;;;;;14.40;8.17;;;7.00;99.90;;;;;;5071394;28;20208;-73
2021/11/17 09:42:27;;;;;;;17.00;8.60;;;7.00;99.90;;;;;;5069797;28;20206;-73
2021/11/17 09:44:55;;;;;;;15.63;9.07;;;7.00;99.90;;;;;;5071123;28;20206;-73
2021/11/17 09:47:26;;;;;;;18.50;9.10;;;7.00;99.90;;;;;;5070841;28;20251;-73
2021/11/17 09:50:09;;;;;;;17.23;8.73;;;7.00;99.90;;;;;;5071477;28;20705;-73
2021/11/17 09:52:38;;;;;;;18.43;10.07;;;7.00;99.90;;;;;;5070240;28;20417;-73
2021/11/17 09:55:11;;;;;;;18.53;9.60;;;7.00;99.90;;;;;;5070687;28;20206;-73
2021/11/17 09:57:41;;;;;;;17.43;10.40;;;7.00;99.90;;;;;;5070738;28;20202;-73
2021/11/17 10:00:25;;;;;;;19.57;9.87;;;7.00;99.90;;;;;;5070612;28;20202;-73
2021/11/17 10:02:57;;;;;;;15.47;8.20;;;7.10;99.90;;;;;;5069856;28;20284;-73
2021/11/17 10:08:39;;;;;;;17.10;9.50;;;7.00;99.90;;;;;;5038028;28;20673;-73
2021/11/17 10:11:34;;;;;;;16.47;9.57;;;7.00;99.90;;;;;;5064573;28;20210;-73
2021/11/17 10:14:06;;;;;;;17.87;9.70;;;7.00;99.90;;;;;;5067662;28;20217;-73
2021/11/17 10:16:34;;;;;;;18.30;9.73;;;7.00;99.90;;;;;;5070272;28;20217;-73
2021/11/17 10:19:23;;;;;;;18.07;9.83;;;7.10;99.90;;;;;;5069330;28;20209;-73
2021/11/17 10:22:00;;;;;;;18.27;9.67;;;7.10;99.90;;;;;;5071112;28;20258;-73
2021/11/17 10:24:45;;;;;;;16.70;9.13;;;7.10;99.90;;;;;;5071908;28;20198;-74
2021/11/17 10:27:14;;;;;;;17.50;9.23;;;7.20;99.90;;;;;;5072125;28;20209;-73
2021/11/17 10:29:44;;;;;;;15.77;9.30;;;7.10;99.90;;;;;;5072153;28;20210;-73
2021/11/17 10:32:19;;;;;;;20.13;9.60;;;7.10;99.90;;;;;;5073042;28;20256;-73
2021/11/17 10:34:53;;;;;;;17.03;8.97;;;7.20;99.90;;;;;;5070837;28;20728;-73
2021/11/17 10:37:37;;;;;;;17.30;9.67;;;7.10;99.90;;;;;;5072313;28;20209;-73
2021/11/17 10:40:14;;;;;;;15.30;8.20;;;7.20;99.90;;;;;;5071811;28;20610;-73
2021/11/17 10:42:45;;;;;;;15.77;8.73;;;7.20;99.90;;;;;;5070834;28;20233;-74
2021/11/17 10:45:27;;;;;;;16.77;8.63;;;7.20;99.90;;;;;;5073325;28;20194;-73
2021/11/17 10:47:54;;;;;;;18.10;9.27;;;7.20;99.90;;;;;;5070400;28;20210;-73
2021/11/17 10:50:26;;;;;;;16.70;8.50;;;7.20;99.90;;;;;;5073239;28;20280;-73
2021/11/17 10:52:58;;;;;;;16.40;9.03;;;7.40;99.90;;;;;;5072757;28;20301;-73
2021/11/17 10:55:30;;;;;;;15.47;8.40;;;7.40;99.90;;;;;;5071277;28;20207;-73
2021/11/17 10:57:58;;;;;;;18.23;9.13;;;7.40;99.90;;;;;;5068244;28;20207;-73
2021/11/17 11:00:30;;;;;;;15.93;8.70;;;7.50;99.90;;;;;;5072456;28;20567;-74
2021/11/17 11:02:58;;;;;;;16.47;8.73;;;7.50;99.90;;;;;;5072543;28;20202;-73
2021/11/17 11:05:28;;;;;;;16.27;8.83;;;7.50;99.90;;;;;;5072862;28;20206;-73
2021/11/17 11:08:02;;;;;;;16.03;9.03;;;7.50;99.90;;;;;;5072628;28;20680;-74
2021/11/17 11:10:35;;;;;;;16.33;8.80;;;7.50;99.90;;;;;;5070760;28;20202;-73
2021/11/17 11:13:04;;;;;;;17.03;9.23;;;7.50;99.90;;;;;;5071027;28;20202;-73
2021/11/17 11:15:36;;;;;;;19.80;10.20;;;7.50;99.90;;;;;;5071456;28;20217;-73
2021/11/17 11:18:38;;;;;;;18.67;9.50;;;7.50;99.90;;;;;;5072352;28;20202;-73
2021/11/17 11:21:06;;;;;;;16.53;9.40;;;7.50;99.90;;;;;;5060763;28;20221;-73
2021/11/17 11:23:35;;;;;;;17.57;9.40;;;7.50;99.90;;;;;;5072771;28;20664;-73
2021/11/17 11:26:09;;;;;;;19.17;10.70;;;7.50;99.90;;;;;;5076068;28;20202;-74
2021/11/17 11:28:39;;;;;;;18.97;9.70;;;7.50;99.90;;;;;;5075093;28;20198;-73
2021/11/17 11:31:34;;;;;;;20.00;10.03;;;7.40;99.90;;;;;;5072230;28;20234;-73
2021/11/17 11:34:30;;;;;;;19.43;9.53;;;7.40;99.90;;;;;;5070841;28;20224;-73
2021/11/17 11:36:57;;;;;;;18.47;10.07;;;7.40;99.90;;;;;;5058478;28;20202;-73
2021/11/17 11:39:29;;;;;;;18.93;10.70;;;7.40;99.90;;;;;;5072505;28;20206;-73
2021/11/17 11:42:39;;;;;;;18.03;9.57;;;7.40;99.90;;;;;;5071897;28;20238;-68
2021/11/17 11:45:47;;;;;;;19.10;10.57;;;7.40;99.90;;;;;;5070965;28;20551;-68
2021/11/17 11:48:47;;;;;;;19.53;9.93;;;7.40;99.90;;;;;;5071684;28;20264;-68
2021/11/17 11:51:38;;;;;;;18.90;10.00;;;7.40;99.90;;;;;;5068368;28;20276;-68
2021/11/17 11:54:19;;;;;;;16.20;8.73;;;7.40;99.90;;;;;;5071007;28;20217;-68
2021/11/17 11:56:51;;;;;;;18.63;10.07;;;7.30;99.90;;;;;;5072195;28;20206;-68
2021/11/17 11:59:23;;;;;;;18.70;9.80;;;7.30;99.90;;;;;;5069206;28;20206;-68
2021/11/17 12:02:04;;;;;;;18.03;9.30;;;7.30;99.90;;;;;;5071482;28;20233;-68
2021/11/17 12:04:31;;;;;;;18.63;9.73;;;7.30;99.90;;;;;;5071599;28;20199;-68
2021/11/17 12:07:03;;;;;;;19.07;9.50;;;7.40;99.90;;;;;;5071962;28;20234;-68
2021/11/17 12:09:34;;;;;;;22.50;11.03;;;7.40;99.90;;;;;;5072136;28;20544;-69
2021/11/17 12:12:07;;;;;;;18.90;9.47;;;7.40;99.90;;;;;;5067906;28;20220;-68
2021/11/17 12:14:45;;;;;;;20.90;10.67;;;7.40;99.90;;;;;;5071618;28;20206;-68
2021/11/17 12:17:13;;;;;;;18.43;10.07;;;7.40;99.90;;;;;;5070541;28;20268;-69
2021/11/17 12:19:48;;;;;;;18.80;10.17;;;7.40;99.90;;;;;;5071277;28;20645;-68
2021/11/17 12:22:18;;;;;;;20.47;10.93;;;7.50;99.90;;;;;;5071540;28;20229;-69
2021/11/17 12:24:50;;;;;;;18.87;10.03;;;7.50;99.90;;;;;;5072894;28;20263;-68
2021/11/17 12:27:21;;;;;;;19.53;10.20;;;7.50;99.90;;;;;;5071289;28;20206;-69
2021/11/17 12:29:52;;;;;;;22.37;11.53;;;7.50;99.90;;;;;;5068760;28;20213;-69
2021/11/17 12:32:26;;;;;;;19.10;10.60;;;7.50;99.90;;;;;;5069670;28;20233;-69
2021/11/17 12:35:06;;;;;;;19.33;10.47;;;7.50;99.90;;;;;;5070979;28;20206;-68
2021/11/17 12:37:36;;;;;;;19.10;9.60;;;7.60;99.90;;;;;;5070864;28;20544;-68
2021/11/17 12:40:07;;;;;;;18.97;10.83;;;7.60;99.90;;;;;;5071157;28;20202;-68
2021/11/17 12:42:38;;;;;;;21.53;10.50;;;7.60;99.90;;;;;;5069448;28;20280;-68
2021/11/17 12:45:20;;;;;;;19.17;10.10;;;7.60;99.90;;;;;;5070938;28;20202;-68
2021/11/17 12:47:50;;;;;;;18.80;9.43;;;7.60;99.90;;;;;;5067111;28;20267;-69
2021/11/17 12:50:21;;;;;;;20.87;10.33;;;7.60;99.90;;;;;;5067259;28;20789;-69
2021/11/17 12:52:52;;;;;;;20.57;10.87;;;7.60;99.90;;;;;;5069694;28;20267;-69
2021/11/17 12:55:23;;;;;;;19.87;10.83;;;7.60;99.90;;;;;;5064856;28;20194;-69
2021/11/17 12:57:54;;;;;;;22.07;12.00;;;7.60;99.90;;;;;;5068332;28;20202;-69
2021/11/17 13:00:40;;;;;;;19.87;11.03;;;7.60;99.90;;;;;;5069918;28;20621;-69
2021/11/17 13:03:09;;;;;;;20.23;12.07;;;7.60;99.90;;;;;;5069823;28;20697;-69
2021/11/17 13:05:39;;;;;;;23.83;13.20;;;7.60;99.90;;;;;;5069912;28;20256;-70
2021/11/17 13:08:11;;;;;;;23.40;12.90;;;7.60;99.90;;;;;;5071547;28;20209;-68
2021/11/17 13:10:40;;;;;;;23.67;12.37;;;7.60;99.90;;;;;;5069303;28;20206;-69
2021/11/17 13:13:24;;;;;;;28.87;13.63;;;7.60;99.90;;;;;;5071077;28;20235;-69
2021/11/17 13:15:59;;;;;;;24.43;12.97;;;7.60;99.90;;;;;;5068326;28;20198;-69
2021/11/17 13:18:36;;;;;;;23.00;12.97;;;7.60;99.90;;;;;;5069354;28;20197;-69
2021/11/17 13:21:14;;;;;;;21.67;12.37;;;7.60;99.90;;;;;;5069608;28;20206;-69
2021/11/17 13:23:49;;;;;;;22.50;11.63;;;7.60;99.90;;;;;;5070962;28;20257;-69
2021/11/17 13:26:30;;;;;;;22.17;11.90;;;7.50;99.90;;;;;;5070887;28;20259;-71
2021/11/17 13:29:18;;;;;;;24.07;12.00;;;7.50;99.90;;;;;;5070484;28;20268;-70
2021/11/17 13:31:46;;;;;;;23.10;12.83;;;7.50;99.90;;;;;;5067960;28;20613;-71
2021/11/17 13:34:15;;;;;;;22.17;11.20;;;7.50;99.90;;;;;;5070317;28;20232;-69
2021/11/17 13:36:51;;;;;;;22.23;11.93;;;7.60;99.90;;;;;;5068944;28;20229;-69
2021/11/17 13:39:22;;;;;;;21.07;11.83;;;7.60;99.90;;;;;;5069959;28;20214;-69
2021/11/17 13:41:53;;;;;;;22.07;11.90;;;7.60;99.90;;;;;;5069271;28;20618;-69
2021/11/17 13:44:24;;;;;;;20.00;11.17;;;7.70;99.90;;;;;;5069531;28;20297;-69
2021/11/17 13:46:58;;;;;;;20.33;11.13;;;7.60;99.90;;;;;;5069876;28;20565;-69
2021/11/17 13:49:26;;;;;;;23.20;11.67;;;7.70;99.90;;;;;;5071488;28;20581;-69
2021/11/17 13:51:54;;;;;;;21.50;12.03;;;7.70;99.90;;;;;;5065963;28;20245;-69
2021/11/17 13:54:21;;;;;;;22.73;11.97;;;7.80;99.90;;;;;;5070694;28;20206;-69
2021/11/17 13:56:49;;;;;;;20.37;11.67;;;7.70;99.90;;;;;;5074255;28;20210;-69
2021/11/17 13:59:16;;;;;;;20.50;12.67;;;7.70;99.90;;;;;;5074103;28;20198;-69
2021/11/17 14:01:45;;;;;;;21.00;11.93;;;7.70;99.90;;;;;;5071692;28;20618;-69
2021/11/17 14:04:12;;;;;;;22.50;11.53;;;7.70;99.90;;;;;;5070744;28;20263;-69
2021/11/17 14:06:42;;;;;;;20.67;10.47;;;7.80;99.90;;;;;;5073161;28;20206;-69
2021/11/17 14:09:12;;;;;;;19.53;10.70;;;7.70;99.90;;;;;;5074406;28;20210;-69
2021/11/17 14:11:41;;;;;;;20.03;10.23;;;7.80;99.90;;;;;;5074247;28;20245;-69
2021/11/17 14:14:11;;;;;;;20.50;10.90;;;7.70;99.90;;;;;;5073046;28;20210;-69
2021/11/17 14:16:38;;;;;;;20.77;11.43;;;7.80;99.90;;;;;;5073542;28;20293;-69
2021/11/17 14:19:07;;;;;;;21.40;10.53;;;7.80;99.90;;;;;;5069568;28;20241;-69
2021/11/17 14:21:34;;;;;;;20.00;11.60;;;7.80;99.90;;;;;;5073407;28;20210;-69
2021/11/17 14:24:01;;;;;;;21.00;11.17;;;7.80;99.90;;;;;;5073955;28;20723;-69
2021/11/17 14:26:31;;;;;;;22.53;11.97;;;7.90;99.90;;;;;;5073179;28;20210;-69
2021/11/17 14:29:03;;;;;;;21.90;12.57;;;7.90;99.90;;;;;;5073788;28;20288;-69
2021/11/17 14:31:34;;;;;;;24.20;13.13;;;7.90;99.90;;;;;;5073538;28;20718;-69
2021/11/17 14:34:01;;;;;;;25.30;12.93;;;8.00;99.90;;;;;;5073375;28;20237;-69
2021/11/17 14:36:34;;;;;;;23.13;11.97;;;8.00;99.90;;;;;;5073653;28;20210;-69
2021/11/17 14:39:03;;;;;;;26.47;13.47;;;8.00;99.90;;;;;;5073261;28;20256;-69
2021/11/17 14:41:32;;;;;;;23.63;13.07;;;8.00;99.90;;;;;;5072679;28;20271;-69
2021/11/17 14:44:02;;;;;;;27.10;14.43;;;7.90;99.90;;;;;;5073143;28;20206;-69
2021/11/17 14:46:30;;;;;;;25.20;14.23;;;7.90;99.90;;;;;;5076229;28;20198;-69
2021/11/17 14:48:57;;;;;;;24.47;13.83;;;7.90;99.90;;;;;;5071657;28;20210;-69
2021/11/17 14:51:24;;;;;;;23.80;13.10;;;7.90;99.90;;;;;;5073167;28;20202;-69
2021/11/17 14:53:53;;;;;;;23.80;13.60;;;7.90;99.90;;;;;;5073459;28;20231;-69
2021/11/17 14:56:22;;;;;;;23.10;13.30;;;7.90;99.90;;;;;;5072649;28;20234;-69
2021/11/17 14:58:49;;;;;;;21.93;13.30;;;7.90;99.90;;;;;;5073151;28;20609;-69
2021/11/17 15:01:20;;;;;;;25.03;13.80;;;7.90;99.90;;;;;;5072961;28;20248;-69
2021/11/17 15:03:48;;;;;;;25.33;14.07;;;7.90;99.90;;;;;;5073019;28;20692;-69
2021/11/17 15:06:19;;;;;;;25.50;13.60;;;7.90;99.90;;;;;;5072649;28;20260;-69
2021/11/17 15:08:47;;;;;;;24.70;13.53;;;7.90;99.90;;;;;;5072555;28;20210;-69
2021/11/17 15:11:16;;;;;;;26.80;14.33;;;7.90;99.90;;;;;;5072897;28;20203;-73
2021/11/17 15:13:46;;;;;;;22.13;13.37;;;7.90;99.90;;;;;;5073346;28;20206;-74
2021/11/17 15:16:14;;;;;;;22.00;13.00;;;8.00;99.90;;;;;;5073345;28;20234;-73
2021/11/17 15:18:44;;;;;;;27.03;13.93;;;7.90;99.90;;;;;;5073500;28;20202;-73
2021/11/17 15:21:13;;;;;;;21.80;11.43;;;8.00;99.90;;;;;;5071796;28;20202;-74
2021/11/17 15:23:41;;;;;;;22.47;12.33;;;7.90;99.90;;;;;;5072815;28;20229;-74
2021/11/17 15:26:11;;;;;;;19.93;11.80;;;8.00;99.90;;;;;;5072928;28;20301;-74
2021/11/17 15:28:42;;;;;;;21.93;12.53;;;8.00;99.90;;;;;;5073073;28;20205;-73
2021/11/17 15:31:12;;;;;;;20.10;11.67;;;8.00;99.90;;;;;;5072811;28;20233;-74
2021/11/17 15:33:39;;;;;;;21.13;12.13;;;8.00;99.90;;;;;;5072127;28;20218;-74
2021/11/17 15:36:08;;;;;;;21.00;12.37;;;8.00;99.90;;;;;;5072924;28;20206;-74
2021/11/17 15:38:35;;;;;;;22.27;13.47;;;8.00;99.90;;;;;;5072584;28;20264;-74
2021/11/17 15:41:04;;;;;;;18.97;11.87;;;8.00;99.90;;;;;;5072541;28;20713;-73
2021/11/17 15:43:31;;;;;;;22.60;13.87;;;8.00;99.90;;;;;;5072182;28;20226;-74
2021/11/17 15:46:00;;;;;;;23.37;13.00;;;8.00;99.90;;;;;;5072661;28;20553;-74
2021/11/17 15:48:28;;;;;;;22.80;13.00;;;8.00;99.90;;;;;;5071333;28;20198;-74
2021/11/17 15:51:00;;;;;;;21.10;13.33;;;7.90;99.90;;;;;;5072471;28;20203;-73